createdAt,value
2023-03-31T00:00:51.919Z,10.00
2023-03-31T00:03:22.242Z,10.11
2023-03-31T00:05:53.649Z,10.02
2023-03-31T00:08:21.380Z,9.99
2023-03-31T00:10:49.130Z,10.10
2023-03-31T00:13:16.602Z,10.00
2023-03-31T00:15:43.518Z,10.03
2023-03-31T00:18:10.636Z,10.09
2023-03-31T00:20:38.260Z,10.17
2023-03-31T00:23:11.285Z,10.11
2023-03-31T00:25:41.868Z,10.09
2023-03-31T00:28:09.010Z,10.01
2023-03-31T00:30:35.622Z,10.09
2023-03-31T00:33:03.094Z,10.04
2023-03-31T00:35:30.362Z,10.08
2023-03-31T00:37:58.095Z,10.22
2023-03-31T00:40:25.139Z,10.19
2023-03-31T00:42:52.226Z,10.22
2023-03-31T00:45:25.174Z,10.12
2023-03-31T00:47:58.215Z,10.18
2023-03-31T00:50:33.502Z,10.21
2023-03-31T00:53:09.596Z,10.22
2023-03-31T00:55:42.561Z,10.26
2023-03-31T00:58:14.651Z,10.29
2023-03-31T01:00:42.838Z,10.30
2023-03-31T01:03:11.605Z,10.21
2023-03-31T01:05:56.470Z,10.30
2023-03-31T01:08:27.830Z,10.34
2023-03-31T01:11:02.566Z,10.34
2023-03-31T01:13:32.261Z,10.36
2023-03-31T01:15:59.311Z,10.28
2023-03-31T01:18:28.097Z,10.27
2023-03-31T01:21:18.964Z,10.22
2023-03-31T01:24:07.503Z,10.13
2023-03-31T01:27:32.866Z,10.12
2023-03-31T01:30:24.660Z,10.15
2023-03-31T01:33:13.968Z,10.08
2023-03-31T01:35:47.196Z,10.08
2023-03-31T01:38:16.582Z,10.07
2023-03-31T01:41:08.054Z,10.06
2023-03-31T01:44:05.974Z,10.03
2023-03-31T01:46:46.888Z,10.03
2023-03-31T01:49:28.697Z,9.97
2023-03-31T01:52:09.400Z,9.94
2023-03-31T01:55:00.515Z,9.95
2023-03-31T01:57:33.677Z,9.92
2023-03-31T02:00:17.624Z,9.86
2023-03-31T02:03:02.370Z,9.84
2023-03-31T02:06:01.268Z,9.90
2023-03-31T02:08:44.614Z,9.81
2023-03-31T02:11:12.529Z,9.88
2023-03-31T02:13:42.346Z,9.79
2023-03-31T02:16:15.274Z,9.81
2023-03-31T02:18:44.243Z,9.80
2023-03-31T02:21:14.695Z,9.76
2023-03-31T02:23:43.007Z,9.81
2023-03-31T02:26:20.024Z,9.80
2023-03-31T02:28:47.094Z,9.80
2023-03-31T02:31:41.695Z,9.79
2023-03-31T02:34:11.994Z,9.74
2023-03-31T02:36:40.641Z,9.76
2023-03-31T02:39:24.826Z,9.76
2023-03-31T02:41:54.025Z,9.72
2023-03-31T02:44:21.316Z,9.74
2023-03-31T02:46:50.045Z,9.69
2023-03-31T02:49:19.715Z,9.70
2023-03-31T02:52:11.602Z,9.61
2023-03-31T02:55:09.742Z,9.59
2023-03-31T02:58:07.760Z,9.63
2023-03-31T03:01:12.919Z,9.49
2023-03-31T03:03:57.377Z,9.53
2023-03-31T03:06:54.132Z,9.49
2023-03-31T03:09:38.019Z,9.60
2023-03-31T03:12:32.080Z,9.52
2023-03-31T03:15:27.776Z,9.47
2023-03-31T03:17:57.103Z,9.52
2023-03-31T03:20:24.322Z,9.51
2023-03-31T03:22:51.521Z,9.48
2023-03-31T03:25:20.706Z,9.46
2023-03-31T03:27:49.895Z,9.50
2023-03-31T03:30:17.207Z,9.50
2023-03-31T03:32:44.405Z,9.52
2023-03-31T03:35:14.408Z,9.60
2023-03-31T03:37:42.655Z,9.59
2023-03-31T03:40:13.360Z,9.53
2023-03-31T03:42:41.788Z,9.50
2023-03-31T03:45:09.616Z,9.44
2023-03-31T03:47:36.464Z,9.54
2023-03-31T03:50:04.563Z,9.50
2023-03-31T03:52:33.175Z,9.53
2023-03-31T03:55:04.052Z,9.51
2023-03-31T03:57:31.398Z,9.45
2023-03-31T03:59:58.193Z,9.46
2023-03-31T04:02:28.006Z,9.41
2023-03-31T04:04:55.000Z,9.51
2023-03-31T04:07:22.204Z,9.45
2023-03-31T04:09:50.106Z,9.46
2023-03-31T04:12:19.761Z,9.43
2023-03-31T04:14:54.856Z,9.38
2023-03-31T04:17:33.420Z,9.38
2023-03-31T04:20:13.761Z,9.40
2023-03-31T04:22:47.175Z,9.38
2023-03-31T04:25:18.152Z,9.41
2023-03-31T04:27:58.301Z,9.28
2023-03-31T04:30:31.996Z,9.33
2023-03-31T04:33:01.845Z,9.38
2023-03-31T04:35:51.813Z,9.39
2023-03-31T04:38:27.508Z,9.35
2023-03-31T04:40:55.029Z,9.34
2023-03-31T04:43:22.167Z,9.32
2023-03-31T04:45:49.349Z,9.30
2023-03-31T04:48:20.298Z,9.33
2023-03-31T04:50:47.246Z,9.26
2023-03-31T04:53:14.284Z,9.24
2023-03-31T04:55:41.164Z,9.22
2023-03-31T04:58:09.110Z,9.22
2023-03-31T05:00:37.604Z,9.19
2023-03-31T05:03:07.129Z,9.15
2023-03-31T05:08:19.646Z,9.15
2023-03-31T05:10:46.368Z,9.18
2023-03-31T05:13:13.926Z,9.12
2023-03-31T05:15:42.199Z,9.14
2023-03-31T05:18:10.590Z,9.16
2023-03-31T05:20:39.030Z,9.16
2023-03-31T05:23:08.171Z,9.11
2023-03-31T05:25:35.437Z,9.15
2023-03-31T05:28:03.709Z,9.10
2023-03-31T05:30:34.986Z,9.08
2023-03-31T05:33:10.518Z,9.04
2023-03-31T05:35:37.854Z,9.06
2023-03-31T05:38:06.842Z,9.04
2023-03-31T05:40:36.548Z,9.00
2023-03-31T05:43:03.307Z,8.94
2023-03-31T05:45:33.828Z,8.97
2023-03-31T05:48:12.279Z,9.06
2023-03-31T05:50:44.121Z,9.08
2023-03-31T05:53:12.467Z,8.98
2023-03-31T05:55:39.522Z,9.08
2023-03-31T05:58:09.305Z,9.04
2023-03-31T06:00:36.957Z,9.07
2023-03-31T06:03:04.040Z,9.05
2023-03-31T06:05:32.425Z,9.12
2023-03-31T06:07:59.359Z,9.02
2023-03-31T06:10:29.579Z,9.12
2023-03-31T06:12:58.367Z,9.14
2023-03-31T06:15:26.325Z,9.09
2023-03-31T06:17:54.653Z,9.12
2023-03-31T06:20:28.349Z,9.12
2023-03-31T06:22:58.124Z,9.21
2023-03-31T06:25:25.923Z,9.23
2023-03-31T06:27:53.740Z,9.28
2023-03-31T06:30:20.724Z,9.33
2023-03-31T06:32:47.813Z,9.42
2023-03-31T06:35:17.763Z,9.33
2023-03-31T06:37:52.108Z,9.25
2023-03-31T06:40:20.350Z,9.26
2023-03-31T06:42:47.161Z,9.33
2023-03-31T06:45:16.524Z,9.36
2023-03-31T06:47:43.408Z,9.46
2023-03-31T06:50:12.423Z,9.59
2023-03-31T06:52:42.085Z,9.65
2023-03-31T06:55:11.382Z,9.68
2023-03-31T06:57:40.434Z,9.82
2023-03-31T07:00:08.129Z,9.81
2023-03-31T07:02:35.644Z,9.84
2023-03-31T07:05:02.410Z,9.88
2023-03-31T07:07:33.104Z,9.91
2023-03-31T07:10:00.669Z,9.90
2023-03-31T07:12:29.302Z,9.98
2023-03-31T07:14:59.460Z,9.96
2023-03-31T07:17:28.046Z,9.93
2023-03-31T07:19:56.002Z,10.05
2023-03-31T07:22:23.716Z,9.93
2023-03-31T07:24:51.535Z,9.95
2023-03-31T07:27:19.791Z,9.98
2023-03-31T07:29:46.590Z,9.98
2023-03-31T07:32:13.536Z,9.98
2023-03-31T07:34:45.248Z,10.04
2023-03-31T07:37:13.237Z,10.04
2023-03-31T07:39:41.368Z,10.03
2023-03-31T07:42:08.243Z,10.04
2023-03-31T07:44:37.806Z,10.11
2023-03-31T07:47:06.386Z,10.13
2023-03-31T07:49:35.941Z,10.13
2023-03-31T07:52:04.542Z,10.17
2023-03-31T07:54:37.124Z,10.22
2023-03-31T07:57:07.331Z,10.25
2023-03-31T07:59:34.481Z,10.27
2023-03-31T08:02:02.009Z,10.31
2023-03-31T08:04:29.702Z,10.38
2023-03-31T08:06:59.299Z,10.40
2023-03-31T08:09:27.573Z,10.50
2023-03-31T08:11:55.315Z,10.52
2023-03-31T08:14:34.149Z,10.56
2023-03-31T08:17:08.998Z,10.58
2023-03-31T08:19:37.626Z,10.70
2023-03-31T08:22:04.288Z,10.74
2023-03-31T08:24:31.574Z,10.71
2023-03-31T08:27:03.392Z,10.82
2023-03-31T08:29:30.168Z,10.88
2023-03-31T08:31:56.940Z,10.93
2023-03-31T08:34:24.328Z,11.04
2023-03-31T08:36:51.410Z,11.03
2023-03-31T08:39:20.072Z,11.04
2023-03-31T08:42:03.232Z,11.04
2023-03-31T08:44:36.577Z,11.16
2023-03-31T08:47:12.342Z,11.17
2023-03-31T08:49:48.229Z,11.18
2023-03-31T08:52:19.546Z,11.19
2023-03-31T08:54:56.013Z,11.09
2023-03-31T08:57:47.156Z,11.27
2023-03-31T09:00:19.300Z,11.26
2023-03-31T09:02:59.817Z,11.31
2023-03-31T09:05:30.136Z,11.51
2023-03-31T09:08:15.317Z,11.56
2023-03-31T09:10:54.529Z,11.66
2023-03-31T09:13:46.446Z,11.71
2023-03-31T09:16:40.658Z,11.58
2023-03-31T09:19:21.080Z,11.64
2023-03-31T09:21:53.787Z,11.84
2023-03-31T09:24:32.107Z,11.66
2023-03-31T09:27:07.590Z,11.59
2023-03-31T09:29:49.381Z,11.56
2023-03-31T09:32:31.461Z,11.62
2023-03-31T09:35:23.378Z,11.59
2023-03-31T09:37:57.328Z,11.53
2023-03-31T09:40:27.307Z,11.69
2023-03-31T09:43:30.668Z,11.57
2023-03-31T09:46:08.706Z,11.58
2023-03-31T09:48:40.297Z,11.49
2023-03-31T09:51:16.244Z,11.45
2023-03-31T09:54:13.255Z,11.39
2023-03-31T09:56:50.680Z,11.37
2023-03-31T09:59:32.379Z,11.32
2023-03-31T10:02:05.756Z,11.29
2023-03-31T10:04:35.277Z,11.20
2023-03-31T10:07:07.972Z,11.21
2023-03-31T10:09:39.903Z,11.29
2023-03-31T10:12:16.059Z,11.29
2023-03-31T10:14:50.316Z,11.21
2023-03-31T10:17:23.868Z,11.24
2023-03-31T10:20:02.328Z,11.20
2023-03-31T10:22:33.011Z,11.27
2023-03-31T10:25:17.480Z,11.25
2023-03-31T10:27:51.381Z,11.18
2023-03-31T10:30:39.362Z,11.07
2023-03-31T10:33:22.256Z,10.90
2023-03-31T10:35:59.553Z,10.67
2023-03-31T10:38:55.377Z,10.54
2023-03-31T10:41:28.763Z,10.44
2023-03-31T10:43:58.236Z,10.38
2023-03-31T10:46:50.241Z,10.50
2023-03-31T10:49:24.019Z,10.52
2023-03-31T10:51:58.653Z,10.67
2023-03-31T10:54:27.215Z,10.73
2023-03-31T10:57:01.991Z,10.90
2023-03-31T10:59:32.683Z,11.07
2023-03-31T11:02:00.606Z,11.27
2023-03-31T11:04:47.075Z,11.39
2023-03-31T11:07:30.039Z,11.22
2023-03-31T11:10:18.516Z,11.25
2023-03-31T11:12:54.701Z,11.16
2023-03-31T11:15:49.376Z,10.92
2023-03-31T11:18:58.117Z,10.74
2023-03-31T11:21:48.833Z,10.71
2023-03-31T11:24:40.528Z,10.66
2023-03-31T11:27:16.798Z,10.43
2023-03-31T11:29:51.681Z,10.27
2023-03-31T11:32:45.620Z,10.29
2023-03-31T11:35:26.390Z,10.30
2023-03-31T11:38:42.009Z,10.42
2023-03-31T11:41:16.372Z,10.39
2023-03-31T11:43:57.044Z,10.52
2023-03-31T11:46:33.740Z,10.49
2023-03-31T11:49:15.041Z,10.64
2023-03-31T11:51:51.613Z,10.61
2023-03-31T11:54:25.032Z,10.86
2023-03-31T11:56:57.596Z,11.00
2023-03-31T11:59:30.399Z,11.14
2023-03-31T12:02:06.368Z,11.27
2023-03-31T12:05:11.089Z,11.14
2023-03-31T12:07:48.404Z,10.94
2023-03-31T12:10:24.334Z,10.83
2023-03-31T12:13:05.579Z,10.56
2023-03-31T12:15:39.622Z,10.43
2023-03-31T12:18:15.468Z,10.32
2023-03-31T12:20:52.430Z,10.35
2023-03-31T12:23:24.499Z,10.39
2023-03-31T12:26:18.599Z,10.45
2023-03-31T12:28:47.358Z,10.42
2023-03-31T12:31:23.266Z,10.59
2023-03-31T12:33:58.048Z,10.56
2023-03-31T12:36:46.879Z,10.51
2023-03-31T12:39:16.826Z,10.53
2023-03-31T12:41:59.906Z,10.63
2023-03-31T12:44:33.149Z,10.71
2023-03-31T12:47:46.312Z,10.69
2023-03-31T12:50:31.969Z,10.52
2023-03-31T12:53:19.978Z,10.50
2023-03-31T12:56:08.706Z,10.53
2023-03-31T12:58:43.821Z,10.51
2023-03-31T13:01:30.703Z,10.53
2023-03-31T13:04:21.304Z,10.61
2023-03-31T13:06:57.969Z,10.79
2023-03-31T13:09:35.067Z,10.78
2023-03-31T13:12:15.465Z,10.85
2023-03-31T13:14:46.542Z,10.69
2023-03-31T13:17:32.404Z,10.61
2023-03-31T13:20:32.279Z,10.53
2023-03-31T13:23:08.315Z,10.43
2023-03-31T13:25:45.819Z,10.35
2023-03-31T13:28:33.892Z,10.29
2023-03-31T13:31:09.249Z,10.32
2023-03-31T13:33:58.231Z,10.27
2023-03-31T13:36:44.623Z,10.37
2023-03-31T13:39:49.206Z,10.54
2023-03-31T13:42:50.398Z,10.55
2023-03-31T13:45:53.519Z,10.58
2023-03-31T13:48:42.272Z,10.36
2023-03-31T13:51:54.599Z,10.30
2023-03-31T13:54:33.102Z,10.19
2023-03-31T13:57:28.631Z,10.25
2023-03-31T14:00:33.356Z,10.22
2023-03-31T14:03:43.741Z,10.03
2023-03-31T14:06:42.107Z,10.06
2023-03-31T14:09:20.228Z,10.03
2023-03-31T14:11:49.117Z,10.06
2023-03-31T14:14:18.254Z,10.18
2023-03-31T14:16:50.289Z,10.25
2023-03-31T14:19:35.419Z,10.22
2023-03-31T14:22:47.788Z,10.27
2023-03-31T14:25:53.521Z,10.29
2023-03-31T14:28:28.289Z,10.44
2023-03-31T14:31:05.360Z,10.32
2023-03-31T14:33:57.045Z,10.28
2023-03-31T14:36:57.959Z,10.17
2023-03-31T14:39:31.907Z,10.12
2023-03-31T14:42:12.320Z,10.00
2023-03-31T14:44:43.112Z,9.75
2023-03-31T14:47:17.995Z,9.80
2023-03-31T14:49:45.034Z,9.89
2023-03-31T14:52:16.999Z,9.74
2023-03-31T14:54:47.806Z,9.78
2023-03-31T14:57:19.636Z,9.76
2023-03-31T14:59:50.252Z,9.82
2023-03-31T15:02:34.698Z,9.80
2023-03-31T15:05:08.493Z,9.80
2023-03-31T15:07:37.243Z,9.79
2023-03-31T15:10:05.754Z,9.82
2023-03-31T15:12:33.313Z,9.77
2023-03-31T15:15:06.855Z,9.83
2023-03-31T15:17:44.846Z,9.82
2023-03-31T15:20:35.199Z,9.83
2023-03-31T15:23:22.214Z,9.75
2023-03-31T15:25:51.612Z,9.76
2023-03-31T15:28:19.193Z,9.63
2023-03-31T15:30:52.220Z,9.68
2023-03-31T15:33:36.915Z,9.57
2023-03-31T15:36:05.291Z,9.54
2023-03-31T15:38:40.202Z,9.65
2023-03-31T15:41:17.596Z,9.56
2023-03-31T15:44:19.781Z,9.59
2023-03-31T15:46:59.168Z,9.60
2023-03-31T15:49:31.289Z,9.61
2023-03-31T15:52:02.474Z,9.64
2023-03-31T15:54:38.172Z,9.63
2023-03-31T15:57:07.687Z,9.63
2023-03-31T15:59:55.972Z,9.52
2023-03-31T16:02:27.518Z,9.56
2023-03-31T16:04:59.700Z,9.40
2023-03-31T16:07:36.747Z,9.39
2023-03-31T16:10:16.215Z,9.26
2023-03-31T16:13:17.355Z,9.24
2023-03-31T16:15:49.848Z,9.27
2023-03-31T16:18:25.733Z,9.24
2023-03-31T16:21:00.044Z,9.24
2023-03-31T16:23:35.108Z,9.20
2023-03-31T16:26:03.721Z,9.24
2023-03-31T16:28:42.163Z,9.21
2023-03-31T16:31:30.615Z,9.22
2023-03-31T16:34:00.259Z,9.19
2023-03-31T16:36:35.415Z,9.21
2023-03-31T16:39:05.332Z,9.24
2023-03-31T16:41:35.031Z,9.17
2023-03-31T16:44:02.271Z,9.14
2023-03-31T16:46:29.792Z,9.16
2023-03-31T16:49:01.358Z,9.16
2023-03-31T16:51:29.535Z,9.18
2023-03-31T16:53:59.363Z,9.20
2023-03-31T16:56:27.922Z,9.21
2023-03-31T16:58:55.610Z,9.23
2023-03-31T17:01:23.258Z,9.20
2023-03-31T17:03:52.346Z,9.24
2023-03-31T17:06:19.093Z,9.21
2023-03-31T17:08:46.207Z,9.22
2023-03-31T17:11:14.607Z,9.22
2023-03-31T17:13:46.968Z,9.28
2023-03-31T17:16:20.335Z,9.28
2023-03-31T17:18:51.014Z,9.27
2023-03-31T17:21:21.617Z,9.24
2023-03-31T17:23:50.463Z,9.25
2023-03-31T17:26:25.274Z,9.19
2023-03-31T17:28:53.835Z,9.17
2023-03-31T17:31:21.861Z,9.18
2023-03-31T17:33:49.965Z,9.12
2023-03-31T17:36:19.394Z,9.11
2023-03-31T17:38:46.438Z,9.13
2023-03-31T17:41:14.032Z,9.13
2023-03-31T17:43:47.211Z,9.16
2023-03-31T17:46:14.246Z,9.21
2023-03-31T17:48:43.485Z,9.17
2023-03-31T17:51:15.274Z,9.13
2023-03-31T17:53:45.183Z,9.19
2023-03-31T17:56:17.049Z,9.11
2023-03-31T17:58:44.805Z,9.13
2023-03-31T18:01:13.892Z,9.07
2023-03-31T18:03:43.857Z,9.07
2023-03-31T18:06:15.288Z,9.04
2023-03-31T18:08:43.375Z,9.02
2023-03-31T18:11:13.554Z,9.04
2023-03-31T18:13:41.153Z,9.03
2023-03-31T18:16:10.140Z,9.02
2023-03-31T18:18:39.761Z,9.05
2023-03-31T18:21:13.414Z,9.06
2023-03-31T18:23:42.098Z,9.07
2023-03-31T18:26:11.611Z,9.00
2023-03-31T18:28:42.841Z,9.05
2023-03-31T18:31:11.154Z,9.02
2023-03-31T18:33:39.168Z,9.04
2023-03-31T18:36:07.378Z,9.06
2023-03-31T18:38:37.407Z,9.06
2023-03-31T18:41:07.828Z,9.09
2023-03-31T18:43:37.990Z,9.08
2023-03-31T18:46:06.969Z,9.10
2023-03-31T18:48:37.857Z,9.06
2023-03-31T18:51:05.222Z,9.09
2023-03-31T18:53:33.632Z,9.08
2023-03-31T18:56:01.654Z,9.11
2023-03-31T18:58:30.326Z,9.07
2023-03-31T19:00:58.281Z,9.07
2023-03-31T19:03:27.500Z,9.10
2023-03-31T19:06:04.924Z,9.10
2023-03-31T19:08:32.366Z,9.13
2023-03-31T19:11:14.455Z,9.10
2023-03-31T19:13:43.146Z,9.09
2023-03-31T19:16:14.981Z,9.04
2023-03-31T19:18:43.807Z,9.03
2023-03-31T19:21:11.197Z,9.04
2023-03-31T19:23:38.016Z,9.03
2023-03-31T19:26:06.708Z,9.04
2023-03-31T19:28:34.569Z,9.04
2023-03-31T19:31:04.179Z,9.08
2023-03-31T19:33:34.401Z,9.08
2023-03-31T19:36:02.854Z,9.08
2023-03-31T19:38:33.414Z,9.05
2023-03-31T19:41:04.401Z,9.04
2023-03-31T19:43:31.912Z,9.05
2023-03-31T19:46:02.070Z,9.04
2023-03-31T19:48:34.271Z,9.02
2023-03-31T19:51:09.036Z,8.99
2023-03-31T19:53:39.981Z,9.03
2023-03-31T19:56:17.063Z,8.99
2023-03-31T19:58:44.795Z,8.99
2023-03-31T20:01:21.031Z,9.02
2023-03-31T20:03:54.936Z,9.03
2023-03-31T20:06:30.890Z,8.98
2023-03-31T20:09:01.065Z,9.02
2023-03-31T20:11:32.238Z,9.03
2023-03-31T20:13:59.658Z,8.95
2023-03-31T20:16:28.974Z,8.96
2023-03-31T20:18:57.083Z,8.97
2023-03-31T20:21:27.599Z,9.03
2023-03-31T20:24:01.115Z,9.03
2023-03-31T20:26:30.789Z,9.04
2023-03-31T20:29:02.387Z,9.05
2023-03-31T20:31:32.840Z,9.06
2023-03-31T20:34:02.626Z,9.01
2023-03-31T20:36:32.075Z,8.99
2023-03-31T20:39:01.936Z,9.00
2023-03-31T20:41:30.876Z,9.00
2023-03-31T20:43:59.099Z,9.00
2023-03-31T20:46:28.633Z,9.00
2023-03-31T20:48:59.276Z,8.97
2023-03-31T20:51:33.871Z,9.03
2023-03-31T20:54:04.090Z,8.99
2023-03-31T20:56:44.277Z,8.97
2023-03-31T20:59:13.509Z,8.93
2023-03-31T21:01:50.216Z,8.96
2023-03-31T21:04:17.900Z,8.92
2023-03-31T21:06:50.376Z,8.93
2023-03-31T21:09:17.265Z,8.90
2023-03-31T21:11:44.167Z,8.87
2023-03-31T21:14:14.134Z,8.94
2023-03-31T21:16:44.676Z,8.87
2023-03-31T21:19:15.268Z,8.86
2023-03-31T21:21:43.583Z,8.89
2023-03-31T21:24:14.444Z,8.87
2023-03-31T21:26:43.097Z,8.91
2023-03-31T21:29:10.265Z,8.86
2023-03-31T21:31:37.480Z,8.87
2023-03-31T21:34:05.774Z,8.87
2023-03-31T21:36:34.705Z,8.89
2023-03-31T21:39:02.881Z,8.86
2023-03-31T21:41:31.583Z,8.89
2023-03-31T21:44:01.708Z,8.89
2023-03-31T21:46:33.835Z,8.86
2023-03-31T21:49:01.509Z,8.87
2023-03-31T21:51:31.132Z,8.88
2023-03-31T21:53:57.909Z,8.84
2023-03-31T21:56:31.873Z,8.86
2023-03-31T21:59:01.458Z,8.84
2023-03-31T22:01:32.542Z,8.83
2023-03-31T22:03:59.915Z,8.80
2023-03-31T22:06:26.849Z,8.84
2023-03-31T22:08:53.910Z,8.82
2023-03-31T22:11:22.815Z,8.84
2023-03-31T22:13:51.165Z,8.83
2023-03-31T22:16:21.627Z,8.85
2023-03-31T22:18:51.619Z,8.79
2023-03-31T22:21:27.534Z,8.81
2023-03-31T22:23:59.730Z,8.82
2023-03-31T22:26:29.379Z,8.78
2023-03-31T22:28:58.456Z,8.77
2023-03-31T22:31:27.222Z,8.78
2023-03-31T22:34:01.795Z,8.78
2023-03-31T22:36:32.702Z,8.77
2023-03-31T22:39:00.902Z,8.76
2023-03-31T22:41:29.588Z,8.76
2023-03-31T22:43:57.907Z,8.78
2023-03-31T22:46:29.383Z,8.80
2023-03-31T22:48:59.366Z,8.80
2023-03-31T22:51:28.286Z,8.79
2023-03-31T22:53:55.562Z,8.80
2023-03-31T22:56:29.840Z,8.82
2023-03-31T22:58:57.833Z,8.80
2023-03-31T23:01:26.093Z,8.79
2023-03-31T23:03:56.120Z,8.79
2023-03-31T23:06:24.414Z,8.85
2023-03-31T23:08:51.172Z,8.80
2023-03-31T23:11:20.757Z,8.82
2023-03-31T23:13:49.710Z,8.81
2023-03-31T23:16:21.540Z,8.83
2023-03-31T23:18:50.153Z,8.77
2023-03-31T23:21:22.020Z,8.78
2023-03-31T23:23:52.681Z,8.80
2023-03-31T23:26:22.379Z,8.82
2023-03-31T23:28:50.316Z,8.89
2023-03-31T23:31:19.777Z,8.87
2023-03-31T23:33:48.507Z,8.86
2023-03-31T23:36:21.865Z,8.85
2023-03-31T23:38:50.446Z,8.83
2023-03-31T23:41:19.012Z,8.88
2023-03-31T23:43:46.554Z,8.87
2023-03-31T23:46:16.025Z,8.86
2023-03-31T23:48:43.029Z,8.89
2023-03-31T23:51:11.550Z,8.91
2023-03-31T23:53:41.149Z,8.93
2023-03-31T23:56:10.904Z,8.91
2023-03-31T23:58:40.691Z,8.87
